Warrington, United Kingdom
Current Conditions -  °F | °C
As of 4:50 AM on Tuesday 21 Oct 2014 (Local Time) from EGGP Reporting Station
Rain Showers Rain Showers  
Wind Chill: 57°   Ceiling: 3500
Heat Index: 57°   Visibility: 6mi
Dew Point: 54°   Wind: 18mph
Humidity: 88%   Direction: 210°SSW
Pressure: 29.35"   Gusts: NA
Location:  53.39°N, 2.59°W
Report Text: EGGP 210350Z 21016KT 9999 -SHRA FEW025 BKN035 14/12 Q0994
Loading
Personal Weather Stations






























Interactive Weather Map
Tropical Storm Tracking
New forecast layout! Learn more

10-Day Weather Forecast

Advertisements
Track Severe Weather on mobile